MRZ weather

Moree Airport
Moree, New South Wales, Australia

Public forecast

Using degrees Celsius for public forecast. Weather courtesy of forecast.io.

Current aviation weather report (METAR) for Moree Airport

Retrieved 2019/12/05 16:00 UTC (55 minutes ago):

YMOR 051600Z AUTO 12003KT 9999 // NCD 19/M02 Q1009

Closest aviation forecast (TAF) to Moree Airport

Forecast is more than 6 hours old.

Closest forecast is Tamworth Airport, 108.4 nm (200.8 km) SSE. Retrieved 2019/12/05 06:00 UTC (11 hours ago):

TAF YSTW 050509Z 0506/0600 27014KT CAVOK FM050900 30005KT CAVOK FM051400 13005KT CAVOK FM052300 28010KT CAVOK